ACA8269 CYLW-CYVR
Flight info
| Callsign | ACA8269 |
|---|---|
| Flight time | N/A |
| Altitude | 20000 |
| Route | MERYT DCT BOOTH CANUC6 |
| Aircraft | DH8D/M-SDE2E3FGRY/H |
Departure
| Time | 2026-05-07 20:02 |
|---|---|
| Airport | Kelowna International Airport (CYLW) |
Arrival
| Time | N/A |
|---|---|
| Airport | Vancouver International Airport (CYVR) |
| Time | Latitude | Longitude | Altitude | Speed | Heading |
|---|---|---|---|---|---|
| 2026-05-07 19:32 | 49.95193 | -119.38018 | 1446 ft | 0 kts | 274° |
| 2026-05-07 19:52 | 49.95193 | -119.38019 | 1449 ft | 0 kts | 274° |
| 2026-05-07 19:53 | 49.95192 | -119.38005 | 1449 ft | 2 kts | 274° |
| 2026-05-07 19:53 | 49.95192 | -119.37984 | 1449 ft | 0 kts | 274° |
| 2026-05-07 19:54 | 49.95192 | -119.37968 | 1449 ft | 2 kts | 244° |
| 2026-05-07 19:54 | 49.95202 | -119.37952 | 1449 ft | 1 kts | 201° |
| 2026-05-07 19:54 | 49.95198 | -119.37952 | 1449 ft | 1 kts | 173° |
| 2026-05-07 19:54 | 49.95176 | -119.37944 | 1449 ft | 1 kts | 169° |
| 2026-05-07 19:55 | 49.95169 | -119.37942 | 1449 ft | 0 kts | 175° |
| 2026-05-07 19:59 | 49.95149 | -119.37911 | 1449 ft | 8 kts | 106° |
| 2026-05-07 19:59 | 49.95094 | -119.37852 | 1450 ft | 12 kts | 176° |
| 2026-05-07 19:59 | 49.94999 | -119.37839 | 1450 ft | 15 kts | 174° |
| 2026-05-07 19:59 | 49.94891 | -119.37825 | 1450 ft | 15 kts | 176° |
| 2026-05-07 20:00 | 49.94814 | -119.37804 | 1450 ft | 0 kts | 153° |
| 2026-05-07 20:00 | 49.94810 | -119.37801 | 1450 ft | 0 kts | 153° |
| 2026-05-07 20:01 | 49.94809 | -119.37801 | 1450 ft | 2 kts | 151° |
| 2026-05-07 20:01 | 49.94771 | -119.37741 | 1450 ft | 12 kts | 123° |
| 2026-05-07 20:01 | 49.94802 | -119.37674 | 1450 ft | 0 kts | 355° |
| 2026-05-07 20:02 | 49.94966 | -119.37693 | 1450 ft | 68 kts | 355° |
| 2026-05-07 20:02 | 49.95737 | -119.37801 | 1450 ft | 145 kts | 355° |
| 2026-05-07 20:02 | 49.96806 | -119.37868 | 1907 ft | 157 kts | 355° |
| 2026-05-07 20:02 | 49.97922 | -119.37959 | 2533 ft | 165 kts | 354° |
| 2026-05-07 20:03 | 49.99020 | -119.38157 | 3367 ft | 162 kts | 352° |
| 2026-05-07 20:03 | 50.00136 | -119.38389 | 4049 ft | 165 kts | 352° |
| 2026-05-07 20:03 | 50.01259 | -119.38644 | 4784 ft | 165 kts | 348° |
| 2026-05-07 20:03 | 50.02343 | -119.39131 | 5478 ft | 166 kts | 342° |
| 2026-05-07 20:04 | 50.03426 | -119.39704 | 6214 ft | 164 kts | 341° |
| 2026-05-07 20:04 | 50.04511 | -119.40282 | 6765 ft | 168 kts | 341° |
| 2026-05-07 20:04 | 50.05610 | -119.40874 | 7339 ft | 168 kts | 341° |
| 2026-05-07 20:04 | 50.06692 | -119.41461 | 7908 ft | 168 kts | 341° |
| 2026-05-07 20:05 | 50.07941 | -119.42143 | 7813 ft | 210 kts | 340° |
| 2026-05-07 20:05 | 50.09366 | -119.42931 | 8035 ft | 229 kts | 340° |
| 2026-05-07 20:05 | 50.10907 | -119.43786 | 8427 ft | 237 kts | 340° |
| 2026-05-07 20:05 | 50.12473 | -119.44653 | 8952 ft | 240 kts | 340° |
| 2026-05-07 20:06 | 50.14046 | -119.45525 | 9470 ft | 242 kts | 341° |
| 2026-05-07 20:06 | 50.15667 | -119.46133 | 10007 ft | 242 kts | 359° |
| 2026-05-07 20:06 | 50.17253 | -119.45275 | 10365 ft | 252 kts | 36° |
| 2026-05-07 20:06 | 50.18404 | -119.43188 | 10799 ft | 256 kts | 50° |
| 2026-05-07 20:07 | 50.19533 | -119.41043 | 11216 ft | 258 kts | 45° |
| 2026-05-07 20:07 | 50.20766 | -119.38979 | 11641 ft | 260 kts | 43° |
| 2026-05-07 20:07 | 50.22060 | -119.36992 | 12019 ft | 262 kts | 40° |
| 2026-05-07 20:07 | 50.23395 | -119.35075 | 12392 ft | 264 kts | 38° |
| 2026-05-07 20:08 | 50.24757 | -119.33212 | 12897 ft | 259 kts | 37° |
| 2026-05-07 20:08 | 50.26203 | -119.31618 | 13367 ft | 251 kts | 19° |
| 2026-05-07 20:08 | 50.27877 | -119.31045 | 13783 ft | 246 kts | 4° |
| 2026-05-07 20:08 | 50.29556 | -119.30708 | 14184 ft | 246 kts | 4° |
| 2026-05-07 20:09 | 50.31266 | -119.30385 | 14541 ft | 248 kts | 3° |
| 2026-05-07 20:09 | 50.32958 | -119.30077 | 14982 ft | 246 kts | 3° |
| 2026-05-07 20:09 | 50.34665 | -119.29775 | 15359 ft | 246 kts | 2° |
| 2026-05-07 20:10 | 50.38091 | -119.29182 | 16091 ft | 248 kts | 2° |
| 2026-05-07 20:10 | 50.39814 | -119.28889 | 16447 ft | 248 kts | 2° |
| 2026-05-07 20:10 | 50.41538 | -119.28598 | 16754 ft | 251 kts | 2° |
| 2026-05-07 20:10 | 50.43251 | -119.28348 | 17103 ft | 248 kts | 357° |
| 2026-05-07 20:11 | 50.44884 | -119.29019 | 17320 ft | 244 kts | 326° |
| 2026-05-07 20:11 | 50.45885 | -119.31108 | 17568 ft | 248 kts | 291° |
| 2026-05-07 20:11 | 50.45874 | -119.33813 | 17809 ft | 261 kts | 260° |
| 2026-05-07 20:11 | 50.45183 | -119.36496 | 18012 ft | 269 kts | 253° |
| 2026-05-07 20:12 | 50.44395 | -119.39156 | 18389 ft | 268 kts | 252° |
| 2026-05-07 20:12 | 50.44147 | -119.39980 | 18461 ft | 269 kts | 252° |
| 2026-05-07 20:12 | 50.43341 | -119.42645 | 18772 ft | 269 kts | 252° |
| 2026-05-07 20:12 | 50.42535 | -119.45283 | 19045 ft | 270 kts | 252° |
| 2026-05-07 20:13 | 50.41721 | -119.47938 | 19333 ft | 270 kts | 252° |
| 2026-05-07 20:13 | 50.40909 | -119.50575 | 19523 ft | 273 kts | 252° |
| 2026-05-07 20:13 | 50.40080 | -119.53252 | 19879 ft | 270 kts | 252° |
| 2026-05-07 20:13 | 50.39254 | -119.55924 | 20006 ft | 276 kts | 253° |
| 2026-05-07 20:14 | 50.38412 | -119.58651 | 20031 ft | 284 kts | 252° |
| 2026-05-07 20:14 | 50.37542 | -119.61458 | 20035 ft | 291 kts | 252° |
| 2026-05-07 20:14 | 50.36649 | -119.64329 | 20041 ft | 297 kts | 252° |
| 2026-05-07 20:14 | 50.35727 | -119.67281 | 20051 ft | 302 kts | 251° |
| 2026-05-07 20:15 | 50.34796 | -119.70261 | 20049 ft | 307 kts | 251° |
| 2026-05-07 20:15 | 50.33861 | -119.73246 | 20052 ft | 310 kts | 251° |
| 2026-05-07 20:15 | 50.33312 | -119.74995 | 20055 ft | 312 kts | 250° |
| 2026-05-07 20:15 | 50.33297 | -119.75044 | 20055 ft | 312 kts | 250° |